Wetterdaten: aktuell Montag, 21.06.2021 05:05
Datum Zeit Temp. A. Temp. 5cm Feuchte A. Luftdruck Regen Wind Richtung Richtung Taupunkt Windben
21.06.2021 05:05 15,0 C 14,6 C 88 % 1008,7 hPa 0,0 l/m 0,2 km/h SO 135 13,0 C 2,7 km/h
21.06.2021 05:00 15,0 C 14,6 C 88 % 1008,7 hPa 0,0 l/m 0,3 km/h O-SO 112 13,0 C 0,0 km/h
21.06.2021 04:55 15,0 C 14,6 C 88 % 1008,7 hPa 0,0 l/m 0,3 km/h O 90 13,0 C 0,0 km/h
21.06.2021 04:50 15,0 C 14,7 C 88 % 1008,7 hPa 0,0 l/m 0,2 km/h S 180 13,0 C 0,0 km/h
21.06.2021 04:45 15,1 C 14,7 C 88 % 1008,7 hPa 0,0 l/m 0,3 km/h O-SO 112 13,1 C 0,0 km/h
21.06.2021 04:40 15,1 C 14,8 C 88 % 1008,2 hPa 0,0 l/m 1,3 km/h S-SO 157 13,1 C 0,0 km/h
21.06.2021 04:35 15,2 C 14,9 C 88 % 1008,2 hPa 0,0 l/m 2,3 km/h S 180 13,2 C 0,0 km/h
21.06.2021 04:30 15,2 C 15,0 C 88 % 1008,2 hPa 0,0 l/m 2,4 km/h S-SO 157 13,2 C 3,2 km/h
21.06.2021 04:25 15,3 C 15,0 C 88 % 1008,2 hPa 0,0 l/m 2,1 km/h S-SO 157 13,3 C 3,7 km/h
21.06.2021 04:20 15,4 C 15,0 C 88 % 1007,9 hPa 0,0 l/m 1,9 km/h O-SO 112 13,4 C 2,6 km/h
21.06.2021 04:15 15,4 C 15,0 C 88 % 1007,9 hPa 0,0 l/m 1,3 km/h SO 135 13,4 C 0,0 km/h
21.06.2021 04:10 15,5 C 15,0 C 88 % 1007,9 hPa 0,0 l/m 0,5 km/h S 180 13,5 C 1,6 km/h
21.06.2021 04:05 15,6 C 14,8 C 88 % 1007,9 hPa 0,0 l/m 0,3 km/h S-SO 157 13,6 C 0,0 km/h
21.06.2021 04:00 15,6 C 14,6 C 88 % 1008,3 hPa 0,0 l/m 0,2 km/h S-SO 157 13,6 C 0,0 km/h
21.06.2021 03:55 15,6 C 14,5 C 88 % 1008,3 hPa 0,0 l/m 0,0 km/h W-SW 247 13,6 C 0,0 km/h
21.06.2021 03:50 15,7 C 14,7 C 88 % 1008,3 hPa 0,0 l/m 0,0 km/h NO 45 13,7 C 0,0 km/h
21.06.2021 03:45 15,8 C 14,8 C 88 % 1008,3 hPa 0,0 l/m 0,0 km/h S 180 13,8 C 0,0 km/h
21.06.2021 03:40 15,9 C 15,0 C 88 % 1008,4 hPa 0,0 l/m 1,0 km/h N-NO 22 13,9 C 0,0 km/h
21.06.2021 03:35 15,9 C 15,2 C 88 % 1008,4 hPa 0,0 l/m 2,4 km/h O-SO 112 13,9 C 0,0 km/h
21.06.2021 03:30 16,1 C 15,3 C 88 % 1008,4 hPa 0,0 l/m 2,9 km/h S 180 14,1 C 4,5 km/h
21.06.2021 03:25 16,2 C 15,3 C 88 % 1008,4 hPa 0,0 l/m 2,3 km/h S 180 14,2 C 4,3 km/h
21.06.2021 03:20 16,3 C 15,4 C 88 % 1008,3 hPa 0,0 l/m 1,4 km/h SO 135 14,3 C 1,9 km/h
21.06.2021 03:15 16,4 C 15,4 C 88 % 1008,3 hPa 0,0 l/m 0,8 km/h SO 135 14,4 C 2,9 km/h
21.06.2021 03:10 16,6 C 15,7 C 88 % 1008,3 hPa 0,0 l/m 2,3 km/h S 180 14,6 C 1,9 km/h
21.06.2021 03:05 16,6 C 15,7 C 88 % 1008,3 hPa 0,0 l/m 2,3 km/h S 180 14,6 C 1,9 km/h
21.06.2021 03:00 16,6 C 15,8 C 88 % 1008,4 hPa 0,0 l/m 2,1 km/h S 180 14,6 C 1,6 km/h
21.06.2021 02:55 16,7 C 15,9 C 88 % 1008,4 hPa 0,0 l/m 1,9 km/h S-SO 157 14,7 C 3,1 km/h
21.06.2021 02:50 16,8 C 15,9 C 88 % 1008,4 hPa 0,0 l/m 0,6 km/h O 90 14,8 C 0,0 km/h
21.06.2021 02:45 16,9 C 16,0 C 88 % 1008,4 hPa 0,0 l/m 1,0 km/h O-NO 67 14,9 C 2,7 km/h
21.06.2021 02:40 16,9 C 16,4 C 88 % 1008,8 hPa 0,0 l/m 1,8 km/h SO 135 14,9 C 0,0 km/h
21.06.2021 02:35 17,0 C 16,6 C 88 % 1008,8 hPa 0,0 l/m 1,1 km/h S-SW 202 15,0 C 2,7 km/h
21.06.2021 02:30 17,0 C 16,8 C 88 % 1008,8 hPa 0,0 l/m 0,2 km/h W-SW 247 15,0 C 1,6 km/h
21.06.2021 02:25 17,0 C 16,7 C 88 % 1008,8 hPa 0,0 l/m 0,0 km/h S 180 15,0 C 0,0 km/h
21.06.2021 02:20 17,1 C 16,5 C 88 % 1008,3 hPa 0,0 l/m 0,0 km/h O 90 15,1 C 0,0 km/h
21.06.2021 02:15 17,1 C 16,5 C 88 % 1008,3 hPa 0,0 l/m 0,0 km/h O-SO 112 15,1 C 0,0 km/h
21.06.2021 02:10 17,2 C 16,6 C 88 % 1008,3 hPa 0,0 l/m 0,6 km/h O-NO 67 15,2 C 0,0 km/h
21.06.2021 02:05 17,2 C 16,6 C 87 % 1008,3 hPa 0,0 l/m 0,6 km/h S 180 15,0 C 0,0 km/h
21.06.2021 02:00 17,2 C 16,6 C 87 % 1008,6 hPa 0,0 l/m 0,2 km/h S 180 15,0 C 1,9 km/h
21.06.2021 01:55 17,2 C 16,6 C 87 % 1008,6 hPa 0,0 l/m 0,3 km/h O-SO 112 15,0 C 0,0 km/h
21.06.2021 01:50 17,3 C 16,7 C 87 % 1008,6 hPa 0,0 l/m 0,3 km/h NO 45 15,1 C 0,0 km/h
21.06.2021 01:45 17,4 C 16,7 C 87 % 1008,6 hPa 0,0 l/m 0,8 km/h O 90 15,2 C 0,0 km/h
21.06.2021 01:40 17,4 C 16,7 C 87 % 1009,3 hPa 0,0 l/m 1,4 km/h SW 225 15,2 C 2,6 km/h
21.06.2021 01:35 17,4 C 16,9 C 87 % 1009,3 hPa 0,0 l/m 1,8 km/h W 270 15,2 C 3,5 km/h
21.06.2021 01:30 17,4 C 17,0 C 87 % 1009,3 hPa 0,0 l/m 3,4 km/h SO 135 15,2 C 1,8 km/h
21.06.2021 01:25 17,5 C 17,0 C 87 % 1009,3 hPa 0,0 l/m 4,5 km/h O-NO 67 15,3 C 0,0 km/h
21.06.2021 01:20 17,4 C 16,9 C 87 % 1009,5 hPa 0,0 l/m 4,7 km/h SW 225 15,2 C 12,2 km/h
21.06.2021 01:15 17,4 C 16,9 C 87 % 1009,5 hPa 0,0 l/m 3,1 km/h S 180 15,2 C 7,4 km/h
21.06.2021 01:10 17,4 C 16,9 C 87 % 1009,5 hPa 0,0 l/m 2,7 km/h S-SW 202 15,2 C 2,7 km/h
21.06.2021 01:05 17,3 C 16,9 C 86 % 1009,5 hPa 0,0 l/m 3,1 km/h W-SW 247 14,9 C 3,7 km/h
21.06.2021 01:00 17,3 C 16,9 C 86 % 1009,4 hPa 0,0 l/m 2,7 km/h W-SW 247 14,9 C 2,7 km/h
21.06.2021 00:55 17,4 C 16,9 C 86 % 1009,4 hPa 0,0 l/m 2,7 km/h SO 135 15,0 C 3,1 km/h
21.06.2021 00:50 17,4 C 16,8 C 86 % 1009,4 hPa 0,0 l/m 2,1 km/h S 180 15,0 C 5,5 km/h
21.06.2021 00:45 17,4 C 16,8 C 86 % 1009,4 hPa 0,7 l/m 3,4 km/h O-SO 112 15,0 C 2,9 km/h
21.06.2021 00:40 17,5 C 16,7 C 86 % 1009,4 hPa 0,0 l/m 5,0 km/h W-NW 292 15,1 C 4,8 km/h
21.06.2021 00:35 17,4 C 16,6 C 85 % 1009,4 hPa 0,0 l/m 5,1 km/h SW 225 14,8 C 10,1 km/h
21.06.2021 00:30 17,5 C 16,6 C 85 % 1009,4 hPa 0,0 l/m 4,2 km/h S-SW 202 14,9 C 5,0 km/h
21.06.2021 00:25 17,5 C 16,6 C 85 % 1009,4 hPa 0,7 l/m 4,2 km/h SO 135 14,9 C 3,9 km/h
21.06.2021 00:20 17,5 C 16,5 C 84 % 1010,2 hPa 0,0 l/m 5,3 km/h S 180 14,8 C 5,8 km/h
21.06.2021 00:15 17,6 C 16,5 C 84 % 1010,2 hPa 0,7 l/m 7,6 km/h NO 45 14,9 C 3,1 km/h
21.06.2021 00:10 17,8 C 16,5 C 83 % 1010,2 hPa 6,2 l/m 10,6 km/h W-SW 247 14,9 C 8,5 km/h
21.06.2021 00:05 18,4 C 16,9 C 82 % 1010,2 hPa 2,7 l/m 16,9 km/h S 180 15,3 C 29,5 km/h
21.06.2021 00:00 19,2 C 17,6 C 83 % 1006,5 hPa 0,7 l/m 14,5 km/h O 90 16,2 C 13,0 km/h
20.06.2021 23:55 19,7 C 17,9 C 85 % 1006,5 hPa 0,0 l/m 10,1 km/h W-SW 247 17,1 C 42,0 km/h
20.06.2021 23:50 18,4 C 17,6 C 86 % 1006,5 hPa 0,0 l/m 1,8 km/h S-SO 157 16,0 C 5,0 km/h
20.06.2021 23:45 18,4 C 17,5 C 86 % 1006,5 hPa 0,0 l/m 0,8 km/h SO 135 16,0 C 2,3 km/h
20.06.2021 23:40 18,4 C 17,5 C 86 % 1006,6 hPa 0,0 l/m 0,2 km/h SO 135 16,0 C 2,6 km/h
20.06.2021 23:35 18,4 C 17,5 C 86 % 1006,6 hPa 0,0 l/m 0,5 km/h SO 135 16,0 C 0,0 km/h
20.06.2021 23:30 18,4 C 17,3 C 86 % 1006,6 hPa 0,0 l/m 1,3 km/h S 180 16,0 C 0,0 km/h
20.06.2021 23:25 18,4 C 17,3 C 85 % 1006,6 hPa 0,0 l/m 1,6 km/h SW 225 15,8 C 1,9 km/h
20.06.2021 23:20 18,4 C 17,3 C 85 % 1006,8 hPa 0,0 l/m 1,0 km/h S 180 15,8 C 3,1 km/h
20.06.2021 23:15 18,4 C 17,3 C 85 % 1006,8 hPa 0,0 l/m 0,6 km/h SO 135 15,8 C 0,0 km/h
20.06.2021 23:10 18,5 C 17,2 C 85 % 1006,8 hPa 0,0 l/m 1,1 km/h S-SO 157 15,9 C 0,0 km/h
20.06.2021 23:05 18,5 C 17,2 C 85 % 1006,8 hPa 0,0 l/m 0,8 km/h SO 135 15,9 C 0,0 km/h
20.06.2021 23:00 18,6 C 17,1 C 85 % 1006,8 hPa 0,0 l/m 1,0 km/h S 180 16,0 C 1,6 km/h
20.06.2021 22:55 18,6 C 17,1 C 85 % 1006,8 hPa 0,0 l/m 1,0 km/h S-SO 157 16,0 C 0,0 km/h
20.06.2021 22:50 18,7 C 17,3 C 85 % 1006,8 hPa 0,0 l/m 0,8 km/h S 180 16,1 C 2,7 km/h
20.06.2021 22:45 18,8 C 17,2 C 84 % 1006,8 hPa 0,0 l/m 0,5 km/h S-SO 157 16,0 C 1,8 km/h
20.06.2021 22:40 18,9 C 17,3 C 84 % 1007,1 hPa 0,0 l/m 0,0 km/h SO 135 16,1 C 1,6 km/h
20.06.2021 22:35 19,0 C 17,3 C 84 % 1007,1 hPa 0,0 l/m 0,0 km/h O-NO 67 16,2 C 0,0 km/h
20.06.2021 22:30 19,1 C 17,3 C 84 % 1007,1 hPa 0,0 l/m 0,0 km/h S-SO 157 16,3 C 1,6 km/h
20.06.2021 22:25 19,2 C 17,4 C 84 % 1007,1 hPa 0,0 l/m 0,0 km/h S-SW 202 16,4 C 0,0 km/h
20.06.2021 22:20 19,2 C 17,6 C 84 % 1007,6 hPa 0,0 l/m 0,0 km/h S 180 16,4 C 0,0 km/h
20.06.2021 22:15 19,3 C 17,7 C 84 % 1007,6 hPa 0,0 l/m 0,2 km/h S-SO 157 16,5 C 0,0 km/h
20.06.2021 22:10 19,4 C 17,7 C 84 % 1007,6 hPa 0,0 l/m 0,8 km/h SO 135 16,6 C 0,0 km/h
20.06.2021 22:05 19,5 C 17,9 C 84 % 1007,6 hPa 0,0 l/m 1,1 km/h S 180 16,7 C 1,8 km/h
20.06.2021 22:00 19,6 C 17,9 C 83 % 1008,1 hPa 0,0 l/m 0,6 km/h S 180 16,6 C 2,3 km/h
20.06.2021 21:55 19,7 C 17,9 C 83 % 1008,1 hPa 0,0 l/m 0,2 km/h SO 135 16,7 C 0,0 km/h
20.06.2021 21:50 19,8 C 18,1 C 83 % 1008,1 hPa 0,0 l/m 0,8 km/h S-SO 157 16,8 C 0,0 km/h
20.06.2021 21:45 19,9 C 18,1 C 83 % 1008,1 hPa 0,0 l/m 1,4 km/h S 180 16,9 C 1,6 km/h
20.06.2021 21:40 20,0 C 18,2 C 83 % 1008,2 hPa 0,0 l/m 0,8 km/h S 180 17,0 C 2,4 km/h
20.06.2021 21:35 20,2 C 18,3 C 83 % 1008,2 hPa 0,0 l/m 0,2 km/h S 180 17,2 C 1,9 km/h
20.06.2021 21:30 20,4 C 18,4 C 83 % 1008,2 hPa 0,0 l/m 0,0 km/h S-SO 157 17,4 C 0,0 km/h
20.06.2021 21:25 20,5 C 18,5 C 83 % 1008,2 hPa 0,0 l/m 0,0 km/h SO 135 17,5 C 0,0 km/h
20.06.2021 21:20 20,6 C 18,7 C 83 % 1008,7 hPa 0,0 l/m 0,0 km/h S-SO 157 17,6 C 0,0 km/h
20.06.2021 21:15 20,6 C 18,9 C 83 % 1008,7 hPa 0,0 l/m 0,0 km/h S 180 17,6 C 0,0 km/h
20.06.2021 21:10 20,8 C 19,2 C 83 % 1008,7 hPa 0,0 l/m 0,5 km/h SW 225 17,8 C 0,0 km/h
20.06.2021 21:05 20,8 C 19,2 C 83 % 1008,7 hPa 0,0 l/m 0,8 km/h S 180 17,8 C 0,0 km/h
20.06.2021 21:00 20,9 C 19,6 C 83 % 1009,4 hPa 0,0 l/m 0,5 km/h S-SO 157 17,9 C 2,4 km/h
20.06.2021 20:55 21,0 C 19,8 C 83 % 1009,4 hPa 0,0 l/m 0,0 km/h S-SO 157 18,0 C 0,0 km/h
20.06.2021 20:50 21,1 C 19,8 C 83 % 1009,4 hPa 0,0 l/m 0,0 km/h S-SO 157 18,1 C 0,0 km/h
_ Min-Zeit 04:50 03:55 12:25 23:45 - 15:40 - - 04:50 08:33
Minimum _ 15,0 C 14,5 C 59 % 1006,5 hPa - 0,0 km/h - - 13,0 C 0,0 km/h
_ Max-Zeit 12:25 12:10 02:10 10:05 00:10 00:05 - - 17:20 23:55
Maximum _ 24,9 C 27,4 C 88 % 1014,6 hPa 6,2 l/m 16,9 km/h
S
- - 19,3 C 42,0 km/h
W-SW
Durchschnitt _ 20,6 C 19,9 C 78 % 1011,1 hPa #13,7 l/m 2,7 km/h S - 16,5 C 3,3 km/h